sensor_id;sensor_type;location;lat;lon;timestamp;P1;durP1;ratioP1;P2;durP2;ratioP2
44722;SDS011;30451;48.638;10.624;2022-10-14T00:00:15;1.58;;;0.98;;
44722;SDS011;30451;48.638;10.624;2022-10-14T00:02:41;2.25;;;1.10;;
44722;SDS011;30451;48.638;10.624;2022-10-14T00:05:07;1.50;;;1.10;;
44722;SDS011;30451;48.638;10.624;2022-10-14T00:07:34;1.52;;;1.00;;
44722;SDS011;30451;48.638;10.624;2022-10-14T00:10:00;1.40;;;1.00;;
44722;SDS011;30451;48.638;10.624;2022-10-14T00:12:27;1.85;;;1.02;;
44722;SDS011;30451;48.638;10.624;2022-10-14T00:14:53;1.13;;;0.90;;
44722;SDS011;30451;48.638;10.624;2022-10-14T00:17:20;2.03;;;1.15;;
44722;SDS011;30451;48.638;10.624;2022-10-14T00:19:46;2.03;;;1.33;;
44722;SDS011;30451;48.638;10.624;2022-10-14T00:22:12;1.60;;;1.10;;
44722;SDS011;30451;48.638;10.624;2022-10-14T00:24:37;1.70;;;1.05;;
44722;SDS011;30451;48.638;10.624;2022-10-14T00:27:03;1.23;;;1.10;;
44722;SDS011;30451;48.638;10.624;2022-10-14T00:29:29;1.25;;;1.00;;
44722;SDS011;30451;48.638;10.624;2022-10-14T00:31:54;1.70;;;1.08;;
44722;SDS011;30451;48.638;10.624;2022-10-14T00:34:20;1.20;;;1.00;;
44722;SDS011;30451;48.638;10.624;2022-10-14T00:36:46;1.33;;;1.00;;
44722;SDS011;30451;48.638;10.624;2022-10-14T00:39:11;1.35;;;1.00;;
44722;SDS011;30451;48.638;10.624;2022-10-14T00:41:37;1.65;;;1.02;;
44722;SDS011;30451;48.638;10.624;2022-10-14T00:46:39;1.35;;;0.90;;
44722;SDS011;30451;48.638;10.624;2022-10-14T00:49:09;1.67;;;1.00;;
44722;SDS011;30451;48.638;10.624;2022-10-14T00:51:41;1.35;;;1.00;;
44722;SDS011;30451;48.638;10.624;2022-10-14T00:54:36;1.50;;;1.10;;
44722;SDS011;30451;48.638;10.624;2022-10-14T00:57:06;1.30;;;0.98;;
44722;SDS011;30451;48.638;10.624;2022-10-14T00:59:33;1.13;;;0.90;;
44722;SDS011;30451;48.638;10.624;2022-10-14T01:01:58;2.05;;;1.10;;
44722;SDS011;30451;48.638;10.624;2022-10-14T01:04:24;1.33;;;1.00;;
44722;SDS011;30451;48.638;10.624;2022-10-14T01:10:31;0.95;;;0.80;;
44722;SDS011;30451;48.638;10.624;2022-10-14T01:12:38;1.27;;;0.90;;
44722;SDS011;30451;48.638;10.624;2022-10-14T01:15:23;1.40;;;0.90;;
44722;SDS011;30451;48.638;10.624;2022-10-14T01:18:20;1.70;;;1.20;;
44722;SDS011;30451;48.638;10.624;2022-10-14T01:21:25;1.67;;;1.10;;
44722;SDS011;30451;48.638;10.624;2022-10-14T01:26:46;1.40;;;1.00;;
44722;SDS011;30451;48.638;10.624;2022-10-14T01:32:16;0.93;;;0.80;;
44722;SDS011;30451;48.638;10.624;2022-10-14T01:35:03;1.27;;;1.10;;
44722;SDS011;30451;48.638;10.624;2022-10-14T01:37:44;1.05;;;0.90;;
44722;SDS011;30451;48.638;10.624;2022-10-14T01:40:21;2.22;;;0.90;;
44722;SDS011;30451;48.638;10.624;2022-10-14T01:43:09;1.30;;;0.90;;
44722;SDS011;30451;48.638;10.624;2022-10-14T01:45:37;1.20;;;0.98;;
44722;SDS011;30451;48.638;10.624;2022-10-14T01:48:05;1.42;;;1.00;;
44722;SDS011;30451;48.638;10.624;2022-10-14T01:50:34;1.80;;;1.17;;
44722;SDS011;30451;48.638;10.624;2022-10-14T01:53:02;1.13;;;0.90;;
44722;SDS011;30451;48.638;10.624;2022-10-14T01:55:29;1.35;;;1.20;;
44722;SDS011;30451;48.638;10.624;2022-10-14T01:57:59;1.20;;;1.02;;
44722;SDS011;30451;48.638;10.624;2022-10-14T02:00:25;1.17;;;0.93;;
44722;SDS011;30451;48.638;10.624;2022-10-14T02:02:51;1.75;;;1.00;;
44722;SDS011;30451;48.638;10.624;2022-10-14T02:05:21;1.45;;;1.02;;
44722;SDS011;30451;48.638;10.624;2022-10-14T02:07:56;1.35;;;1.00;;
44722;SDS011;30451;48.638;10.624;2022-10-14T02:18:57;1.45;;;1.00;;
44722;SDS011;30451;48.638;10.624;2022-10-14T02:21:50;1.30;;;1.00;;
44722;SDS011;30451;48.638;10.624;2022-10-14T02:24:36;1.58;;;1.10;;
44722;SDS011;30451;48.638;10.624;2022-10-14T02:27:06;1.73;;;1.10;;
44722;SDS011;30451;48.638;10.624;2022-10-14T02:29:36;1.15;;;0.90;;
44722;SDS011;30451;48.638;10.624;2022-10-14T02:32:02;1.20;;;1.00;;
44722;SDS011;30451;48.638;10.624;2022-10-14T02:34:30;1.08;;;0.98;;
44722;SDS011;30451;48.638;10.624;2022-10-14T02:36:56;0.98;;;0.82;;
44722;SDS011;30451;48.638;10.624;2022-10-14T02:39:30;1.10;;;1.00;;
44722;SDS011;30451;48.638;10.624;2022-10-14T02:42:01;1.25;;;0.90;;
44722;SDS011;30451;48.638;10.624;2022-10-14T02:44:27;1.40;;;1.10;;
44722;SDS011;30451;48.638;10.624;2022-10-14T02:46:54;1.25;;;0.95;;
44722;SDS011;30451;48.638;10.624;2022-10-14T02:49:20;1.10;;;0.90;;
44722;SDS011;30451;48.638;10.624;2022-10-14T02:51:46;1.40;;;1.10;;
44722;SDS011;30451;48.638;10.624;2022-10-14T02:54:11;1.40;;;1.05;;
44722;SDS011;30451;48.638;10.624;2022-10-14T02:56:37;1.10;;;1.00;;
44722;SDS011;30451;48.638;10.624;2022-10-14T02:59:03;2.10;;;1.10;;
44722;SDS011;30451;48.638;10.624;2022-10-14T03:01:28;1.65;;;1.05;;
44722;SDS011;30451;48.638;10.624;2022-10-14T03:03:54;1.52;;;1.02;;
44722;SDS011;30451;48.638;10.624;2022-10-14T03:06:20;1.33;;;0.90;;
44722;SDS011;30451;48.638;10.624;2022-10-14T03:08:45;1.35;;;1.00;;
44722;SDS011;30451;48.638;10.624;2022-10-14T03:11:11;1.10;;;0.90;;
44722;SDS011;30451;48.638;10.624;2022-10-14T03:13:37;1.27;;;1.00;;
44722;SDS011;30451;48.638;10.624;2022-10-14T03:16:02;1.33;;;1.02;;
44722;SDS011;30451;48.638;10.624;2022-10-14T03:18:28;1.17;;;0.98;;
44722;SDS011;30451;48.638;10.624;2022-10-14T03:20:56;1.95;;;1.30;;
44722;SDS011;30451;48.638;10.624;2022-10-14T03:23:21;1.15;;;0.95;;
44722;SDS011;30451;48.638;10.624;2022-10-14T03:25:47;1.27;;;1.00;;
44722;SDS011;30451;48.638;10.624;2022-10-14T03:28:12;1.42;;;1.00;;
44722;SDS011;30451;48.638;10.624;2022-10-14T03:30:38;1.15;;;1.05;;
44722;SDS011;30451;48.638;10.624;2022-10-14T03:33:04;1.40;;;1.00;;
44722;SDS011;30451;48.638;10.624;2022-10-14T03:35:30;1.13;;;0.95;;
44722;SDS011;30451;48.638;10.624;2022-10-14T03:37:56;1.10;;;1.00;;
44722;SDS011;30451;48.638;10.624;2022-10-14T03:40:23;1.50;;;0.95;;
44722;SDS011;30451;48.638;10.624;2022-10-14T03:42:49;1.20;;;1.00;;
44722;SDS011;30451;48.638;10.624;2022-10-14T03:45:14;1.10;;;1.00;;
44722;SDS011;30451;48.638;10.624;2022-10-14T03:47:40;1.10;;;0.90;;
44722;SDS011;30451;48.638;10.624;2022-10-14T03:50:06;1.23;;;1.10;;
44722;SDS011;30451;48.638;10.624;2022-10-14T03:52:32;1.13;;;1.00;;
44722;SDS011;30451;48.638;10.624;2022-10-14T03:54:58;1.25;;;0.98;;
44722;SDS011;30451;48.638;10.624;2022-10-14T03:57:23;1.40;;;1.15;;
44722;SDS011;30451;48.638;10.624;2022-10-14T03:59:49;1.30;;;1.00;;
44722;SDS011;30451;48.638;10.624;2022-10-14T04:02:15;0.90;;;0.85;;
44722;SDS011;30451;48.638;10.624;2022-10-14T04:04:41;1.00;;;0.90;;
44722;SDS011;30451;48.638;10.624;2022-10-14T04:07:06;1.00;;;0.90;;
44722;SDS011;30451;48.638;10.624;2022-10-14T04:09:32;1.80;;;1.10;;
44722;SDS011;30451;48.638;10.624;2022-10-14T04:11:58;1.10;;;1.00;;
44722;SDS011;30451;48.638;10.624;2022-10-14T04:14:23;0.98;;;0.90;;
44722;SDS011;30451;48.638;10.624;2022-10-14T04:16:50;0.82;;;0.77;;
44722;SDS011;30451;48.638;10.624;2022-10-14T04:19:16;1.40;;;1.02;;
44722;SDS011;30451;48.638;10.624;2022-10-14T04:21:46;1.67;;;1.00;;
44722;SDS011;30451;48.638;10.624;2022-10-14T04:24:11;1.23;;;0.90;;
44722;SDS011;30451;48.638;10.624;2022-10-14T04:26:37;1.42;;;1.00;;
44722;SDS011;30451;48.638;10.624;2022-10-14T04:29:03;1.35;;;1.00;;
44722;SDS011;30451;48.638;10.624;2022-10-14T04:31:32;1.15;;;0.90;;
44722;SDS011;30451;48.638;10.624;2022-10-14T04:33:58;1.50;;;1.10;;
44722;SDS011;30451;48.638;10.624;2022-10-14T04:36:24;1.25;;;1.00;;
44722;SDS011;30451;48.638;10.624;2022-10-14T04:38:49;1.27;;;0.90;;
44722;SDS011;30451;48.638;10.624;2022-10-14T04:41:15;1.42;;;0.98;;
44722;SDS011;30451;48.638;10.624;2022-10-14T04:43:41;1.15;;;1.00;;
44722;SDS011;30451;48.638;10.624;2022-10-14T04:46:07;1.25;;;1.00;;
44722;SDS011;30451;48.638;10.624;2022-10-14T04:48:32;1.60;;;1.10;;
44722;SDS011;30451;48.638;10.624;2022-10-14T04:50:58;1.50;;;1.20;;
44722;SDS011;30451;48.638;10.624;2022-10-14T04:53:24;1.00;;;0.90;;
44722;SDS011;30451;48.638;10.624;2022-10-14T04:55:49;1.10;;;1.00;;
44722;SDS011;30451;48.638;10.624;2022-10-14T04:58:15;1.45;;;1.02;;
44722;SDS011;30451;48.638;10.624;2022-10-14T05:00:41;1.27;;;1.02;;
44722;SDS011;30451;48.638;10.624;2022-10-14T05:03:07;1.50;;;1.00;;
44722;SDS011;30451;48.638;10.624;2022-10-14T05:05:32;2.08;;;1.10;;
44722;SDS011;30451;48.638;10.624;2022-10-14T05:07:58;0.98;;;0.82;;
44722;SDS011;30451;48.638;10.624;2022-10-14T05:10:24;1.50;;;0.98;;
44722;SDS011;30451;48.638;10.624;2022-10-14T05:12:50;1.73;;;1.15;;
44722;SDS011;30451;48.638;10.624;2022-10-14T05:15:16;1.48;;;1.00;;
44722;SDS011;30451;48.638;10.624;2022-10-14T05:17:41;1.42;;;1.00;;
44722;SDS011;30451;48.638;10.624;2022-10-14T05:20:09;1.63;;;1.17;;
44722;SDS011;30451;48.638;10.624;2022-10-14T05:22:35;1.65;;;1.15;;
44722;SDS011;30451;48.638;10.624;2022-10-14T05:25:01;1.42;;;1.10;;
44722;SDS011;30451;48.638;10.624;2022-10-14T05:27:27;2.05;;;1.10;;
44722;SDS011;30451;48.638;10.624;2022-10-14T05:29:52;1.95;;;1.20;;
44722;SDS011;30451;48.638;10.624;2022-10-14T05:32:18;2.40;;;1.30;;
44722;SDS011;30451;48.638;10.624;2022-10-14T05:34:44;2.15;;;1.25;;
44722;SDS011;30451;48.638;10.624;2022-10-14T05:37:09;3.10;;;1.50;;
44722;SDS011;30451;48.638;10.624;2022-10-14T05:39:35;2.08;;;1.10;;
44722;SDS011;30451;48.638;10.624;2022-10-14T05:42:00;2.00;;;1.30;;
44722;SDS011;30451;48.638;10.624;2022-10-14T05:44:26;1.85;;;1.38;;
44722;SDS011;30451;48.638;10.624;2022-10-14T05:46:52;2.58;;;1.35;;
44722;SDS011;30451;48.638;10.624;2022-10-14T05:49:17;1.70;;;1.30;;
44722;SDS011;30451;48.638;10.624;2022-10-14T05:51:43;1.90;;;1.27;;
44722;SDS011;30451;48.638;10.624;2022-10-14T05:54:08;2.10;;;1.33;;
44722;SDS011;30451;48.638;10.624;2022-10-14T05:56:35;2.58;;;1.30;;
44722;SDS011;30451;48.638;10.624;2022-10-14T05:59:01;2.10;;;1.20;;
44722;SDS011;30451;48.638;10.624;2022-10-14T06:01:26;3.28;;;1.40;;
44722;SDS011;30451;48.638;10.624;2022-10-14T06:03:52;3.03;;;1.33;;
44722;SDS011;30451;48.638;10.624;2022-10-14T06:06:18;2.42;;;1.33;;
44722;SDS011;30451;48.638;10.624;2022-10-14T06:08:44;2.08;;;1.25;;
44722;SDS011;30451;48.638;10.624;2022-10-14T06:11:10;2.05;;;1.30;;
44722;SDS011;30451;48.638;10.624;2022-10-14T06:13:36;2.33;;;1.27;;
44722;SDS011;30451;48.638;10.624;2022-10-14T06:16:06;2.22;;;1.30;;
44722;SDS011;30451;48.638;10.624;2022-10-14T06:18:33;2.78;;;1.40;;
44722;SDS011;30451;48.638;10.624;2022-10-14T06:20:59;1.52;;;1.20;;
44722;SDS011;30451;48.638;10.624;2022-10-14T06:23:25;2.72;;;1.20;;
44722;SDS011;30451;48.638;10.624;2022-10-14T06:25:51;3.10;;;1.38;;
44722;SDS011;30451;48.638;10.624;2022-10-14T06:28:17;2.28;;;1.27;;
44722;SDS011;30451;48.638;10.624;2022-10-14T06:30:50;1.80;;;1.20;;
44722;SDS011;30451;48.638;10.624;2022-10-14T06:33:16;1.98;;;1.10;;
44722;SDS011;30451;48.638;10.624;2022-10-14T06:35:43;2.05;;;1.20;;
44722;SDS011;30451;48.638;10.624;2022-10-14T06:38:08;1.48;;;1.20;;
44722;SDS011;30451;48.638;10.624;2022-10-14T06:40:34;1.83;;;1.10;;
44722;SDS011;30451;48.638;10.624;2022-10-14T06:43:00;2.40;;;1.10;;
44722;SDS011;30451;48.638;10.624;2022-10-14T06:45:26;2.22;;;1.35;;
44722;SDS011;30451;48.638;10.624;2022-10-14T06:47:52;2.72;;;1.40;;
44722;SDS011;30451;48.638;10.624;2022-10-14T06:50:17;2.00;;;1.10;;
44722;SDS011;30451;48.638;10.624;2022-10-14T06:52:43;1.83;;;1.08;;
44722;SDS011;30451;48.638;10.624;2022-10-14T06:55:10;1.23;;;1.00;;
44722;SDS011;30451;48.638;10.624;2022-10-14T06:57:35;1.85;;;1.00;;
44722;SDS011;30451;48.638;10.624;2022-10-14T07:00:01;2.05;;;1.20;;
44722;SDS011;30451;48.638;10.624;2022-10-14T07:02:28;2.63;;;1.40;;
44722;SDS011;30451;48.638;10.624;2022-10-14T07:04:53;2.63;;;1.45;;
44722;SDS011;30451;48.638;10.624;2022-10-14T07:07:19;2.13;;;1.13;;
44722;SDS011;30451;48.638;10.624;2022-10-14T07:09:45;2.55;;;1.30;;
44722;SDS011;30451;48.638;10.624;2022-10-14T07:12:10;3.05;;;1.50;;
44722;SDS011;30451;48.638;10.624;2022-10-14T07:14:36;2.50;;;1.40;;
44722;SDS011;30451;48.638;10.624;2022-10-14T07:17:01;1.77;;;1.20;;
44722;SDS011;30451;48.638;10.624;2022-10-14T07:19:27;2.78;;;1.38;;
44722;SDS011;30451;48.638;10.624;2022-10-14T07:21:53;3.10;;;1.23;;
44722;SDS011;30451;48.638;10.624;2022-10-14T07:24:18;2.95;;;1.38;;
44722;SDS011;30451;48.638;10.624;2022-10-14T07:26:44;2.40;;;1.38;;
44722;SDS011;30451;48.638;10.624;2022-10-14T07:29:10;2.33;;;1.17;;
44722;SDS011;30451;48.638;10.624;2022-10-14T07:31:35;2.22;;;1.20;;
44722;SDS011;30451;48.638;10.624;2022-10-14T07:34:01;2.40;;;1.23;;
44722;SDS011;30451;48.638;10.624;2022-10-14T07:36:27;3.10;;;1.65;;
44722;SDS011;30451;48.638;10.624;2022-10-14T07:38:53;2.25;;;1.40;;
44722;SDS011;30451;48.638;10.624;2022-10-14T07:41:20;2.22;;;1.38;;
44722;SDS011;30451;48.638;10.624;2022-10-14T07:43:48;2.40;;;1.30;;
44722;SDS011;30451;48.638;10.624;2022-10-14T07:46:16;2.65;;;1.40;;
44722;SDS011;30451;48.638;10.624;2022-10-14T07:48:54;2.08;;;1.40;;
44722;SDS011;30451;48.638;10.624;2022-10-14T07:51:20;2.80;;;1.40;;
44722;SDS011;30451;48.638;10.624;2022-10-14T07:53:46;2.00;;;1.27;;
44722;SDS011;30451;48.638;10.624;2022-10-14T07:56:12;2.10;;;1.30;;
44722;SDS011;30451;48.638;10.624;2022-10-14T07:58:38;2.22;;;1.38;;
44722;SDS011;30451;48.638;10.624;2022-10-14T08:01:04;2.80;;;1.30;;
44722;SDS011;30451;48.638;10.624;2022-10-14T08:03:29;2.10;;;1.30;;
44722;SDS011;30451;48.638;10.624;2022-10-14T08:05:58;2.53;;;1.40;;
44722;SDS011;30451;48.638;10.624;2022-10-14T08:08:26;2.20;;;1.27;;
44722;SDS011;30451;48.638;10.624;2022-10-14T08:10:59;2.83;;;1.40;;
44722;SDS011;30451;48.638;10.624;2022-10-14T08:13:30;1.70;;;1.20;;
44722;SDS011;30451;48.638;10.624;2022-10-14T08:15:56;2.05;;;1.27;;
44722;SDS011;30451;48.638;10.624;2022-10-14T08:18:23;2.05;;;1.23;;
44722;SDS011;30451;48.638;10.624;2022-10-14T08:20:49;2.25;;;1.20;;
44722;SDS011;30451;48.638;10.624;2022-10-14T08:23:15;1.80;;;1.30;;
44722;SDS011;30451;48.638;10.624;2022-10-14T08:25:41;1.98;;;1.20;;
44722;SDS011;30451;48.638;10.624;2022-10-14T08:28:08;2.83;;;1.58;;
44722;SDS011;30451;48.638;10.624;2022-10-14T08:30:33;1.88;;;1.02;;
44722;SDS011;30451;48.638;10.624;2022-10-14T08:32:59;2.00;;;1.30;;
44722;SDS011;30451;48.638;10.624;2022-10-14T08:35:25;3.08;;;1.23;;
44722;SDS011;30451;48.638;10.624;2022-10-14T08:37:57;1.30;;;1.00;;
44722;SDS011;30451;48.638;10.624;2022-10-14T08:40:24;1.90;;;1.30;;
44722;SDS011;30451;48.638;10.624;2022-10-14T08:45:32;1.45;;;1.10;;
44722;SDS011;30451;48.638;10.624;2022-10-14T08:48:02;2.45;;;1.20;;
44722;SDS011;30451;48.638;10.624;2022-10-14T08:53:18;2.10;;;1.23;;
44722;SDS011;30451;48.638;10.624;2022-10-14T08:55:59;2.17;;;1.20;;
44722;SDS011;30451;48.638;10.624;2022-10-14T08:58:30;2.42;;;1.40;;
44722;SDS011;30451;48.638;10.624;2022-10-14T09:01:15;1.98;;;1.30;;
44722;SDS011;30451;48.638;10.624;2022-10-14T09:03:49;2.47;;;1.30;;
44722;SDS011;30451;48.638;10.624;2022-10-14T09:06:37;2.30;;;1.35;;
44722;SDS011;30451;48.638;10.624;2022-10-14T09:09:40;1.90;;;1.15;;
44722;SDS011;30451;48.638;10.624;2022-10-14T09:12:05;2.08;;;1.30;;
44722;SDS011;30451;48.638;10.624;2022-10-14T09:14:37;1.70;;;1.10;;
44722;SDS011;30451;48.638;10.624;2022-10-14T09:17:19;2.20;;;1.30;;
44722;SDS011;30451;48.638;10.624;2022-10-14T09:19:52;1.33;;;1.10;;
44722;SDS011;30451;48.638;10.624;2022-10-14T09:22:25;1.73;;;1.20;;
44722;SDS011;30451;48.638;10.624;2022-10-14T09:24:52;1.80;;;1.23;;
44722;SDS011;30451;48.638;10.624;2022-10-14T09:27:18;2.35;;;1.20;;
44722;SDS011;30451;48.638;10.624;2022-10-14T09:30:08;2.10;;;1.30;;
44722;SDS011;30451;48.638;10.624;2022-10-14T09:32:39;1.77;;;1.20;;
44722;SDS011;30451;48.638;10.624;2022-10-14T09:35:28;2.15;;;1.30;;
44722;SDS011;30451;48.638;10.624;2022-10-14T09:37:57;1.85;;;1.08;;
44722;SDS011;30451;48.638;10.624;2022-10-14T09:40:28;2.03;;;1.20;;
44722;SDS011;30451;48.638;10.624;2022-10-14T09:46:08;1.90;;;1.20;;
44722;SDS011;30451;48.638;10.624;2022-10-14T09:48:41;2.25;;;1.20;;
44722;SDS011;30451;48.638;10.624;2022-10-14T09:53:49;2.63;;;1.30;;
44722;SDS011;30451;48.638;10.624;2022-10-14T09:56:26;2.13;;;1.20;;
44722;SDS011;30451;48.638;10.624;2022-10-14T09:59:00;2.80;;;1.30;;
44722;SDS011;30451;48.638;10.624;2022-10-14T10:01:29;1.50;;;1.17;;
44722;SDS011;30451;48.638;10.624;2022-10-14T10:04:23;1.73;;;1.30;;
44722;SDS011;30451;48.638;10.624;2022-10-14T10:06:55;1.90;;;1.20;;
44722;SDS011;30451;48.638;10.624;2022-10-14T10:09:22;1.95;;;1.20;;
44722;SDS011;30451;48.638;10.624;2022-10-14T10:11:48;1.67;;;1.10;;
44722;SDS011;30451;48.638;10.624;2022-10-14T10:16:50;2.63;;;1.17;;
44722;SDS011;30451;48.638;10.624;2022-10-14T10:19:40;1.67;;;1.23;;
44722;SDS011;30451;48.638;10.624;2022-10-14T10:22:27;2.10;;;1.10;;
44722;SDS011;30451;48.638;10.624;2022-10-14T10:27:37;1.42;;;1.00;;
44722;SDS011;30451;48.638;10.624;2022-10-14T10:35:29;1.10;;;0.90;;
44722;SDS011;30451;48.638;10.624;2022-10-14T10:43:57;1.65;;;1.20;;
44722;SDS011;30451;48.638;10.624;2022-10-14T10:47:02;1.77;;;1.10;;
44722;SDS011;30451;48.638;10.624;2022-10-14T10:49:38;1.70;;;1.10;;
44722;SDS011;30451;48.638;10.624;2022-10-14T10:52:53;1.02;;;0.90;;
44722;SDS011;30451;48.638;10.624;2022-10-14T10:55:11;1.65;;;1.10;;
44722;SDS011;30451;48.638;10.624;2022-10-14T10:58:05;1.88;;;1.20;;
44722;SDS011;30451;48.638;10.624;2022-10-14T11:00:49;2.20;;;1.20;;
44722;SDS011;30451;48.638;10.624;2022-10-14T11:06:57;1.95;;;1.10;;
44722;SDS011;30451;48.638;10.624;2022-10-14T11:09:22;1.88;;;1.10;;
44722;SDS011;30451;48.638;10.624;2022-10-14T11:20:48;2.08;;;1.10;;
44722;SDS011;30451;48.638;10.624;2022-10-14T11:23:28;1.65;;;1.15;;
44722;SDS011;30451;48.638;10.624;2022-10-14T11:26:44;1.38;;;1.10;;
44722;SDS011;30451;48.638;10.624;2022-10-14T11:31:59;1.30;;;1.00;;
44722;SDS011;30451;48.638;10.624;2022-10-14T11:37:17;1.42;;;1.10;;
44722;SDS011;30451;48.638;10.624;2022-10-14T11:42:25;1.65;;;1.20;;
44722;SDS011;30451;48.638;10.624;2022-10-14T11:47:49;1.58;;;1.10;;
44722;SDS011;30451;48.638;10.624;2022-10-14T11:50:20;1.95;;;1.20;;
44722;SDS011;30451;48.638;10.624;2022-10-14T11:53:07;1.73;;;1.10;;
44722;SDS011;30451;48.638;10.624;2022-10-14T11:55:48;1.48;;;1.13;;
44722;SDS011;30451;48.638;10.624;2022-10-14T11:58:27;1.75;;;1.10;;
44722;SDS011;30451;48.638;10.624;2022-10-14T12:00:56;1.50;;;1.00;;
44722;SDS011;30451;48.638;10.624;2022-10-14T12:03:28;2.00;;;1.10;;
44722;SDS011;30451;48.638;10.624;2022-10-14T12:06:17;2.60;;;1.20;;
44722;SDS011;30451;48.638;10.624;2022-10-14T12:08:51;1.42;;;1.10;;
44722;SDS011;30451;48.638;10.624;2022-10-14T12:11:29;1.40;;;1.00;;
44722;SDS011;30451;48.638;10.624;2022-10-14T12:16:44;1.35;;;1.10;;
44722;SDS011;30451;48.638;10.624;2022-10-14T12:19:11;1.38;;;1.00;;
44722;SDS011;30451;48.638;10.624;2022-10-14T12:24:38;1.85;;;1.10;;
44722;SDS011;30451;48.638;10.624;2022-10-14T12:27:10;1.73;;;1.10;;
44722;SDS011;30451;48.638;10.624;2022-10-14T12:29:39;2.22;;;1.08;;
44722;SDS011;30451;48.638;10.624;2022-10-14T12:34:44;1.08;;;0.98;;
44722;SDS011;30451;48.638;10.624;2022-10-14T12:42:31;1.50;;;1.10;;
44722;SDS011;30451;48.638;10.624;2022-10-14T12:47:43;1.23;;;1.00;;
44722;SDS011;30451;48.638;10.624;2022-10-14T12:52:45;1.42;;;1.00;;
44722;SDS011;30451;48.638;10.624;2022-10-14T12:55:20;1.77;;;1.00;;
44722;SDS011;30451;48.638;10.624;2022-10-14T13:02:48;1.70;;;1.08;;
44722;SDS011;30451;48.638;10.624;2022-10-14T13:16:02;1.58;;;1.00;;
44722;SDS011;30451;48.638;10.624;2022-10-14T13:18:32;1.88;;;0.98;;
44722;SDS011;30451;48.638;10.624;2022-10-14T13:21:27;1.50;;;1.00;;
44722;SDS011;30451;48.638;10.624;2022-10-14T13:24:05;2.08;;;1.10;;
44722;SDS011;30451;48.638;10.624;2022-10-14T13:26:42;0.80;;;0.75;;
44722;SDS011;30451;48.638;10.624;2022-10-14T13:37:45;1.65;;;1.00;;
44722;SDS011;30451;48.638;10.624;2022-10-14T13:43:01;2.15;;;1.00;;
44722;SDS011;30451;48.638;10.624;2022-10-14T13:48:03;1.30;;;0.90;;
44722;SDS011;30451;48.638;10.624;2022-10-14T13:50:33;2.47;;;0.98;;
44722;SDS011;30451;48.638;10.624;2022-10-14T13:53:20;1.33;;;0.80;;
44722;SDS011;30451;48.638;10.624;2022-10-14T13:55:48;1.27;;;0.90;;
44722;SDS011;30451;48.638;10.624;2022-10-14T13:58:25;1.10;;;0.88;;
44722;SDS011;30451;48.638;10.624;2022-10-14T14:05:55;1.02;;;0.90;;
44722;SDS011;30451;48.638;10.624;2022-10-14T14:08:26;1.20;;;0.88;;
44722;SDS011;30451;48.638;10.624;2022-10-14T14:10:59;0.95;;;0.82;;
44722;SDS011;30451;48.638;10.624;2022-10-14T14:13:27;1.70;;;0.90;;
44722;SDS011;30451;48.638;10.624;2022-10-14T14:15:56;1.88;;;1.00;;
44722;SDS011;30451;48.638;10.624;2022-10-14T14:21:01;1.70;;;0.90;;
44722;SDS011;30451;48.638;10.624;2022-10-14T14:23:28;1.75;;;0.90;;
44722;SDS011;30451;48.638;10.624;2022-10-14T14:25:54;1.30;;;0.90;;
44722;SDS011;30451;48.638;10.624;2022-10-14T14:28:20;1.38;;;0.80;;
44722;SDS011;30451;48.638;10.624;2022-10-14T14:30:52;1.15;;;0.90;;
44722;SDS011;30451;48.638;10.624;2022-10-14T14:33:28;1.23;;;0.80;;
44722;SDS011;30451;48.638;10.624;2022-10-14T14:36:03;1.00;;;0.90;;
44722;SDS011;30451;48.638;10.624;2022-10-14T14:38:36;0.73;;;0.70;;
44722;SDS011;30451;48.638;10.624;2022-10-14T14:41:11;1.70;;;0.88;;
44722;SDS011;30451;48.638;10.624;2022-10-14T14:43:42;1.10;;;0.82;;
44722;SDS011;30451;48.638;10.624;2022-10-14T14:46:13;1.20;;;0.90;;
44722;SDS011;30451;48.638;10.624;2022-10-14T14:48:49;0.80;;;0.73;;
44722;SDS011;30451;48.638;10.624;2022-10-14T14:51:17;1.05;;;0.80;;
44722;SDS011;30451;48.638;10.624;2022-10-14T14:53:45;1.00;;;0.70;;
44722;SDS011;30451;48.638;10.624;2022-10-14T14:56:16;1.58;;;0.98;;
44722;SDS011;30451;48.638;10.624;2022-10-14T14:58:48;1.40;;;0.90;;
44722;SDS011;30451;48.638;10.624;2022-10-14T15:01:18;1.40;;;0.90;;
44722;SDS011;30451;48.638;10.624;2022-10-14T15:03:50;1.30;;;0.77;;
44722;SDS011;30451;48.638;10.624;2022-10-14T15:06:31;1.15;;;1.00;;
44722;SDS011;30451;48.638;10.624;2022-10-14T15:09:00;1.10;;;0.80;;
44722;SDS011;30451;48.638;10.624;2022-10-14T15:11:44;0.80;;;0.70;;
44722;SDS011;30451;48.638;10.624;2022-10-14T15:19:47;1.70;;;0.90;;
44722;SDS011;30451;48.638;10.624;2022-10-14T15:33:11;0.93;;;0.80;;
44722;SDS011;30451;48.638;10.624;2022-10-14T15:35:42;0.95;;;0.80;;
44722;SDS011;30451;48.638;10.624;2022-10-14T15:38:13;1.35;;;0.90;;
44722;SDS011;30451;48.638;10.624;2022-10-14T15:40:41;1.13;;;0.98;;
44722;SDS011;30451;48.638;10.624;2022-10-14T15:43:13;1.00;;;0.80;;
44722;SDS011;30451;48.638;10.624;2022-10-14T15:45:48;1.17;;;0.80;;
44722;SDS011;30451;48.638;10.624;2022-10-14T15:48:34;0.93;;;0.70;;
44722;SDS011;30451;48.638;10.624;2022-10-14T15:51:00;1.00;;;0.70;;
44722;SDS011;30451;48.638;10.624;2022-10-14T15:53:26;1.02;;;0.80;;
44722;SDS011;30451;48.638;10.624;2022-10-14T15:55:51;1.10;;;1.00;;
44722;SDS011;30451;48.638;10.624;2022-10-14T15:58:17;1.13;;;0.82;;
44722;SDS011;30451;48.638;10.624;2022-10-14T16:00:43;1.10;;;0.70;;
44722;SDS011;30451;48.638;10.624;2022-10-14T16:03:11;1.50;;;0.90;;
44722;SDS011;30451;48.638;10.624;2022-10-14T16:05:37;0.93;;;0.70;;
44722;SDS011;30451;48.638;10.624;2022-10-14T16:08:07;1.25;;;0.75;;
44722;SDS011;30451;48.638;10.624;2022-10-14T16:10:36;0.93;;;0.80;;
44722;SDS011;30451;48.638;10.624;2022-10-14T16:13:02;1.10;;;0.80;;
44722;SDS011;30451;48.638;10.624;2022-10-14T16:15:32;0.80;;;0.70;;
44722;SDS011;30451;48.638;10.624;2022-10-14T16:18:02;0.80;;;0.70;;
44722;SDS011;30451;48.638;10.624;2022-10-14T16:20:28;1.00;;;0.70;;
44722;SDS011;30451;48.638;10.624;2022-10-14T16:22:54;0.98;;;0.75;;
44722;SDS011;30451;48.638;10.624;2022-10-14T16:25:22;0.60;;;0.60;;
44722;SDS011;30451;48.638;10.624;2022-10-14T16:28:07;1.38;;;0.85;;
44722;SDS011;30451;48.638;10.624;2022-10-14T16:30:34;1.33;;;0.80;;
44722;SDS011;30451;48.638;10.624;2022-10-14T16:33:01;0.70;;;0.70;;
44722;SDS011;30451;48.638;10.624;2022-10-14T16:35:27;1.63;;;0.77;;
44722;SDS011;30451;48.638;10.624;2022-10-14T16:37:53;1.08;;;0.80;;
44722;SDS011;30451;48.638;10.624;2022-10-14T16:40:19;1.08;;;0.80;;
44722;SDS011;30451;48.638;10.624;2022-10-14T16:42:46;0.85;;;0.65;;
44722;SDS011;30451;48.638;10.624;2022-10-14T16:45:11;1.20;;;0.77;;
44722;SDS011;30451;48.638;10.624;2022-10-14T16:47:37;1.10;;;0.80;;
44722;SDS011;30451;48.638;10.624;2022-10-14T16:50:04;1.30;;;0.70;;
44722;SDS011;30451;48.638;10.624;2022-10-14T16:52:31;0.93;;;0.70;;
44722;SDS011;30451;48.638;10.624;2022-10-14T16:55:17;0.85;;;0.73;;
44722;SDS011;30451;48.638;10.624;2022-10-14T16:57:44;1.10;;;0.70;;
44722;SDS011;30451;48.638;10.624;2022-10-14T17:00:10;1.00;;;0.77;;
44722;SDS011;30451;48.638;10.624;2022-10-14T17:02:36;1.55;;;0.70;;
44722;SDS011;30451;48.638;10.624;2022-10-14T17:05:01;0.85;;;0.73;;
44722;SDS011;30451;48.638;10.624;2022-10-14T17:07:27;1.17;;;0.70;;
44722;SDS011;30451;48.638;10.624;2022-10-14T17:09:53;1.52;;;0.90;;
44722;SDS011;30451;48.638;10.624;2022-10-14T17:12:18;1.15;;;0.82;;